Time,TemperatureF,DewpointF,PressureIn,WindDirection,WindDirectionDegrees,WindSpeedMPH,WindSpeedGustMPH,Humidity,HourlyPrecipIn,Conditions,Clouds,dailyrainin,SoftwareType,DateUTC
2013-08-04 00:15:00,46.9,45.0,30.00,NW,309,0.0,2.0,92,0.00,,,0.00,weatherlink.com 1.10,2013-08-04 06:15:00,
2013-08-04 00:30:00,46.3,44.0,30.00,NW,307,0.0,0.0,93,0.00,,,0.00,weatherlink.com 1.10,2013-08-04 06:30:00,
2013-08-04 00:45:00,45.7,44.0,30.00,SW,222,0.0,0.0,95,0.00,,,0.00,weatherlink.com 1.10,2013-08-04 06:45:00,
2013-08-04 01:00:00,45.4,44.0,30.00,SW,222,0.0,0.0,95,0.00,,,0.00,weatherlink.com 1.10,2013-08-04 07:00:00,
2013-08-04 01:15:00,44.9,44.0,30.01,SW,222,0.0,0.0,95,0.00,,,0.00,weatherlink.com 1.10,2013-08-04 07:15:00,
2013-08-04 01:30:00,44.6,44.0,30.02,SSW,212,0.0,0.0,96,0.00,,,0.00,weatherlink.com 1.10,2013-08-04 07:30:00,
2013-08-04 01:45:00,44.7,44.0,30.02,SSW,213,0.0,0.0,96,0.00,,,0.00,weatherlink.com 1.10,2013-08-04 07:45:00,
2013-08-04 02:00:00,44.4,43.0,30.02,East,98,0.0,0.0,96,0.00,,,0.00,weatherlink.com 1.10,2013-08-04 08:00:00,
2013-08-04 02:15:00,43.8,43.0,30.02,SW,221,0.0,0.0,95,0.00,,,0.00,weatherlink.com 1.10,2013-08-04 08:15:00,
2013-08-04 02:30:00,43.6,43.0,30.03,SW,221,0.0,0.0,96,0.00,,,0.00,weatherlink.com 1.10,2013-08-04 08:30:00,
2013-08-04 02:45:00,44.0,43.0,30.03,SW,220,0.0,0.0,96,0.00,,,0.00,weatherlink.com 1.10,2013-08-04 08:45:00,
2013-08-04 03:00:00,43.9,43.0,30.02,SW,220,0.0,0.0,97,0.00,,,0.00,weatherlink.com 1.10,2013-08-04 09:00:00,
2013-08-04 03:15:00,44.3,44.0,30.03,NW,325,0.0,2.0,97,0.00,,,0.00,weatherlink.com 1.10,2013-08-04 09:15:00,
2013-08-04 03:30:00,44.6,44.0,30.03,NW,316,2.0,4.0,97,0.00,,,0.00,weatherlink.com 1.10,2013-08-04 09:30:00,
2013-08-04 03:45:00,45.2,44.0,30.03,North,350,2.0,5.0,96,0.00,,,0.00,weatherlink.com 1.10,2013-08-04 09:45:00,
2013-08-04 04:00:00,45.2,44.0,30.03,NNW,340,5.0,6.0,95,0.00,,,0.00,weatherlink.com 1.10,2013-08-04 10:00:00,
2013-08-04 04:15:00,45.3,43.0,30.03,WNW,285,1.0,5.0,93,0.00,,,0.00,weatherlink.com 1.10,2013-08-04 10:15:00,
2013-08-04 04:30:00,44.7,43.0,30.03,NW,314,0.0,4.0,93,0.00,,,0.00,weatherlink.com 1.10,2013-08-04 10:30:00,
2013-08-04 04:45:00,44.3,43.0,30.03,NW,315,0.0,0.0,94,0.00,,,0.00,weatherlink.com 1.10,2013-08-04 10:45:00,
2013-08-04 05:00:00,44.1,43.0,30.03,NW,316,0.0,0.0,95,0.00,,,0.00,weatherlink.com 1.10,2013-08-04 11:00:00,
2013-08-04 05:15:00,44.3,43.0,30.04,NNW,343,1.0,4.0,94,0.00,,,0.00,weatherlink.com 1.10,2013-08-04 11:15:00,
2013-08-04 05:30:00,44.3,42.0,30.04,WNW,283,0.0,0.0,93,0.00,,,0.00,weatherlink.com 1.10,2013-08-04 11:30:00,
2013-08-04 05:45:00,43.9,42.0,30.04,NNW,339,0.0,0.0,94,0.00,,,0.00,weatherlink.com 1.10,2013-08-04 11:45:00,
2013-08-04 06:00:00,43.6,42.0,30.05,NNW,337,0.0,0.0,94,0.00,,,0.00,weatherlink.com 1.10,2013-08-04 12:00:00,
2013-08-04 06:15:00,43.6,42.0,30.06,North,356,0.0,4.0,94,0.00,,,0.00,weatherlink.com 1.10,2013-08-04 12:15:00,
2013-08-04 06:30:00,44.2,43.0,30.06,NNW,342,2.0,2.0,94,0.00,,,0.00,weatherlink.com 1.10,2013-08-04 12:30:00,
2013-08-04 06:45:00,44.1,43.0,30.07,NNE,23,2.0,4.0,94,0.00,,,0.00,weatherlink.com 1.10,2013-08-04 12:45:00,
2013-08-04 07:00:00,44.5,43.0,30.08,NW,309,2.0,5.0,94,0.00,,,0.00,weatherlink.com 1.10,2013-08-04 13:00:00,
2013-08-04 07:15:00,44.7,43.0,30.08,NW,322,4.0,6.0,93,0.00,,,0.00,weatherlink.com 1.10,2013-08-04 13:15:00,
2013-08-04 07:30:00,44.9,43.0,30.09,NW,321,4.0,6.0,93,0.00,,,0.00,weatherlink.com 1.10,2013-08-04 13:30:00,
2013-08-04 07:46:00,44.9,43.0,30.09,NW,325,2.0,6.0,93,0.00,,,0.00,weatherlink.com 1.10,2013-08-04 13:46:00,
2013-08-04 08:00:00,45.8,44.0,30.09,NNE,26,0.0,3.0,92,0.00,,,0.00,weatherlink.com 1.10,2013-08-04 14:00:00,
2013-08-04 08:16:00,47.0,44.0,30.09,NE,53,2.0,3.0,88,0.00,,,0.00,weatherlink.com 1.10,2013-08-04 14:16:00,
2013-08-04 08:31:00,47.3,44.0,30.09,ENE,75,0.0,3.0,87,0.00,,,0.00,weatherlink.com 1.10,2013-08-04 14:31:00,
2013-08-04 08:46:00,47.9,45.0,30.09,SSE,160,0.0,2.0,88,0.00,,,0.00,weatherlink.com 1.10,2013-08-04 14:46:00,
2013-08-04 09:01:00,49.6,46.0,30.08,South,174,3.0,6.0,87,0.00,,,0.00,weatherlink.com 1.10,2013-08-04 15:01:00,
2013-08-04 09:16:00,49.8,45.0,30.07,SSW,195,0.0,3.0,83,0.00,,,0.00,weatherlink.com 1.10,2013-08-04 15:16:00,
2013-08-04 09:31:00,50.5,46.0,30.07,South,191,5.0,5.0,83,0.00,,,0.00,weatherlink.com 1.10,2013-08-04 15:31:00,
2013-08-04 09:46:00,52.2,47.0,30.06,SE,136,1.0,4.0,82,0.00,,,0.00,weatherlink.com 1.10,2013-08-04 15:46:00,
2013-08-04 10:01:00,52.9,47.0,30.05,SE,134,0.0,4.0,80,0.00,,,0.00,weatherlink.com 1.10,2013-08-04 16:01:00,
2013-08-04 10:16:00,53.9,47.0,30.04,WSW,251,1.0,4.0,77,0.00,,,0.00,weatherlink.com 1.10,2013-08-04 16:16:00,
2013-08-04 10:31:00,55.9,47.0,30.03,SSW,212,0.0,2.0,72,0.00,,,0.00,weatherlink.com 1.10,2013-08-04 16:31:00,
2013-08-04 10:46:00,56.8,47.0,30.03,NE,53,3.0,4.0,71,0.00,,,0.00,weatherlink.com 1.10,2013-08-04 16:46:00,
2013-08-04 11:01:00,59.0,49.0,30.02,ENE,70,3.0,3.0,69,0.00,,,0.00,weatherlink.com 1.10,2013-08-04 17:01:00,
2013-08-04 11:16:00,59.8,48.0,30.01,SE,131,3.0,4.0,66,0.00,,,0.00,weatherlink.com 1.10,2013-08-04 17:16:00,
2013-08-04 11:31:00,62.6,50.0,30.01,ESE,103,0.0,4.0,64,0.00,,,0.00,weatherlink.com 1.10,2013-08-04 17:31:00,
2013-08-04 11:46:00,64.2,50.0,30.00,ESE,117,1.0,7.0,60,0.00,,,0.00,weatherlink.com 1.10,2013-08-04 17:46:00,
2013-08-04 12:16:00,67.9,50.0,29.97,SSE,156,5.0,6.0,53,0.00,,,0.00,weatherlink.com 1.10,2013-08-04 18:16:00,
2013-08-04 12:31:00,69.7,45.0,29.96,SE,140,4.0,7.0,42,0.00,,,0.00,weatherlink.com 1.10,2013-08-04 18:31:00,
2013-08-04 12:46:00,71.4,46.0,29.96,WSW,238,0.0,7.0,40,0.00,,,0.00,weatherlink.com 1.10,2013-08-04 18:46:00,
2013-08-04 13:01:00,71.5,42.0,29.95,SE,135,0.0,6.0,35,0.00,,,0.00,weatherlink.com 1.10,2013-08-04 19:01:00,
2013-08-04 13:17:00,72.2,42.0,29.94,SSE,150,3.0,6.0,34,0.00,,,0.00,weatherlink.com 1.10,2013-08-04 19:17:00,
2013-08-04 13:31:00,71.5,43.0,29.93,South,172,6.0,10.0,36,0.00,,,0.00,weatherlink.com 1.10,2013-08-04 19:31:00,
2013-08-04 13:47:00,69.7,44.0,29.93,SE,139,2.0,8.0,39,0.00,,,0.00,weatherlink.com 1.10,2013-08-04 19:47:00,
2013-08-04 14:02:00,69.2,41.0,29.94,WSW,246,10.0,11.0,36,0.00,,,0.00,weatherlink.com 1.10,2013-08-04 20:02:00,
2013-08-04 14:17:00,65.6,44.0,29.97,WNW,283,7.0,21.0,46,0.00,,,0.00,weatherlink.com 1.10,2013-08-04 20:17:00,
2013-08-04 14:31:00,61.9,46.0,29.98,NW,306,6.0,24.0,57,0.00,,,0.00,weatherlink.com 1.10,2013-08-04 20:31:00,
2013-08-04 14:46:00,60.9,48.0,29.98,NW,305,11.0,16.0,63,0.00,,,0.00,weatherlink.com 1.10,2013-08-04 20:46:00,
2013-08-04 15:02:00,62.6,51.0,29.96,WNW,288,6.0,10.0,67,0.00,,,0.00,weatherlink.com 1.10,2013-08-04 21:02:00,
2013-08-04 15:17:00,65.6,47.0,29.96,NW,325,5.0,10.0,51,0.00,,,0.00,weatherlink.com 1.10,2013-08-04 21:17:00,
2013-08-04 15:32:00,66.8,46.0,29.95,NNE,15,1.0,9.0,48,0.00,,,0.00,weatherlink.com 1.10,2013-08-04 21:32:00,
2013-08-04 15:47:00,68.4,47.0,29.94,North,5,4.0,4.0,46,0.00,,,0.00,weatherlink.com 1.10,2013-08-04 21:47:00,
2013-08-04 16:02:00,70.4,47.0,29.93,West,271,2.0,4.0,43,0.00,,,0.00,weatherlink.com 1.10,2013-08-04 22:02:00,
2013-08-04 16:17:00,70.4,47.0,29.93,West,273,5.0,8.0,43,0.00,,,0.00,weatherlink.com 1.10,2013-08-04 22:17:00,
2013-08-04 16:32:00,71.4,43.0,29.92,NE,42,3.0,5.0,36,0.00,,,0.00,weatherlink.com 1.10,2013-08-04 22:32:00,
2013-08-04 16:47:00,70.4,44.0,29.91,SW,233,3.0,6.0,39,0.00,,,0.00,weatherlink.com 1.10,2013-08-04 22:47:00,
2013-08-04 17:02:00,70.2,45.0,29.91,SSW,192,2.0,4.0,41,0.00,,,0.00,weatherlink.com 1.10,2013-08-04 23:02:00,
2013-08-04 17:17:00,70.8,45.0,29.91,NNW,346,2.0,5.0,40,0.00,,,0.00,weatherlink.com 1.10,2013-08-04 23:17:00,
2013-08-04 17:32:00,69.7,47.0,29.90,NNW,329,1.0,6.0,44,0.00,,,0.00,weatherlink.com 1.10,2013-08-04 23:32:00,
2013-08-04 17:47:00,67.3,46.0,29.90,South,172,6.0,11.0,47,0.00,,,0.00,weatherlink.com 1.10,2013-08-04 23:47:00,
2013-08-04 18:02:00,63.1,47.0,29.90,SSE,148,1.0,6.0,57,0.02,,,0.02,weatherlink.com 1.10,2013-08-05 00:02:00,
2013-08-04 18:17:00,59.1,48.0,29.90,WNW,293,6.0,15.0,68,0.11,,,0.11,weatherlink.com 1.10,2013-08-05 00:17:00,
2013-08-04 18:47:00,57.6,51.0,29.91,WSW,246,2.0,4.0,78,0.21,,,0.21,weatherlink.com 1.10,2013-08-05 00:47:00,
2013-08-04 19:02:00,56.5,51.0,29.90,NE,36,1.0,3.0,83,0.27,,,0.29,weatherlink.com 1.10,2013-08-05 01:02:00,
2013-08-04 19:17:00,56.2,52.0,29.92,South,180,2.0,5.0,86,0.20,,,0.31,weatherlink.com 1.10,2013-08-05 01:17:00,
2013-08-04 19:32:00,56.2,53.0,29.93,SE,136,4.0,4.0,88,0.20,,,0.32,weatherlink.com 1.10,2013-08-05 01:32:00,
2013-08-04 19:47:00,55.7,53.0,29.93,NW,305,2.0,2.0,89,0.13,,,0.34,weatherlink.com 1.10,2013-08-05 01:47:00,
2013-08-04 20:02:00,55.3,52.0,29.95,NW,313,4.0,5.0,89,0.06,,,0.35,weatherlink.com 1.10,2013-08-05 02:02:00,
2013-08-04 20:17:00,53.6,51.0,29.96,NW,325,6.0,8.0,91,0.18,,,0.49,weatherlink.com 1.10,2013-08-05 02:17:00,
2013-08-04 20:32:00,53.1,51.0,29.98,NNW,340,5.0,5.0,93,0.21,,,0.53,weatherlink.com 1.10,2013-08-05 02:32:00,
2013-08-04 20:47:00,53.0,51.0,29.99,NNW,338,3.0,5.0,94,0.23,,,0.57,weatherlink.com 1.10,2013-08-05 02:47:00,
2013-08-04 21:03:00,52.8,51.0,29.99,NW,324,4.0,6.0,92,0.26,,,0.61,weatherlink.com 1.10,2013-08-05 03:03:00,
2013-08-04 21:17:00,52.6,50.0,30.00,WSW,252,2.0,7.0,92,0.13,,,0.62,weatherlink.com 1.10,2013-08-05 03:17:00,
2013-08-04 21:32:00,52.5,50.0,30.02,WNW,294,4.0,6.0,92,0.13,,,0.67,weatherlink.com 1.10,2013-08-05 03:32:00,
2013-08-04 21:47:00,52.4,51.0,30.02,WNW,291,2.0,9.0,93,0.12,,,0.69,weatherlink.com 1.10,2013-08-05 03:47:00,
2013-08-04 22:02:00,52.5,51.0,30.02,West,274,0.0,3.0,93,0.09,,,0.70,weatherlink.com 1.10,2013-08-05 04:02:00,
2013-08-04 22:17:00,52.7,51.0,30.02,East,88,0.0,0.0,93,0.09,,,0.71,weatherlink.com 1.10,2013-08-05 04:17:00,
2013-08-04 22:32:00,52.7,51.0,30.02,SSW,198,4.0,5.0,94,0.04,,,0.71,weatherlink.com 1.10,2013-08-05 04:32:00,
2013-08-04 22:47:00,52.1,51.0,30.02,WSW,250,1.0,3.0,94,0.02,,,0.71,weatherlink.com 1.10,2013-08-05 04:47:00,
2013-08-04 23:02:00,51.9,50.0,30.02,South,191,0.0,2.0,94,0.01,,,0.71,weatherlink.com 1.10,2013-08-05 05:02:00,
2013-08-04 23:17:00,51.8,50.0,30.01,NNE,26,0.0,0.0,94,0.00,,,0.71,weatherlink.com 1.10,2013-08-05 05:17:00,
2013-08-04 23:32:00,51.8,51.0,30.01,NNW,348,0.0,0.0,95,0.00,,,0.71,weatherlink.com 1.10,2013-08-05 05:32:00,
2013-08-04 23:47:00,51.5,50.0,30.00,West,278,0.0,0.0,95,0.00,,,0.71,weatherlink.com 1.10,2013-08-05 05:47:00,